Time;durP1;ratioP1;P1;durP2;ratioP2;P2;SDS_P1;SDS_P2;PMS_P1;PMS_P2;Temp;Humidity;BMP_temperature;BMP_pressure;BME280_temperature;BME280_humidity;BME280_pressure;Samples;Min_cycle;Max_cycle;Signal;HPM_P1;HPM_P2
2021/03/02 06:00:55;;;;;;;0.00;0.00;;;;;;;;;;5066780;28;20381;-45
2021/03/02 06:03:21;;;;;;;0.00;0.00;;;;;;;;;;5077517;28;20024;-46
2021/03/02 06:05:47;;;;;;;0.00;0.00;;;;;;;;;;5074179;28;20033;-45
2021/03/02 06:08:13;;;;;;;2.40;2.17;;;;;;;;;;5068267;28;20020;-45
2021/03/02 06:10:40;;;;;;;0.00;0.00;;;;;;;;;;5057895;28;20063;-46
2021/03/02 06:13:06;;;;;;;0.00;0.00;;;;;;;;;;5062706;28;20056;-47
2021/03/02 06:15:33;;;;;;;0.93;0.90;;;;;;;;;;5070274;28;20035;-50
2021/03/02 06:18:11;;;;;;;0.65;0.65;;;;;;;;;;5068400;28;20097;-45
2021/03/02 06:20:38;;;;;;;2.50;0.57;;;;;;;;;;5068352;28;20032;-46
2021/03/02 06:23:24;;;;;;;0.00;0.00;;;;;;;;;;5068464;28;20017;-53
2021/03/02 06:25:51;;;;;;;0.38;0.38;;;;;;;;;;5058488;28;20024;-47
2021/03/02 06:28:36;;;;;;;11.15;10.30;;;;;;;;;;5059303;28;20040;-55
2021/03/02 06:31:02;;;;;;;0.03;0.03;;;;;;;;;;5057163;28;20037;-48
2021/03/02 06:33:28;;;;;;;2.15;1.80;;;;;;;;;;5065826;28;20018;-58
2021/03/02 06:35:54;;;;;;;1.65;0.70;;;;;;;;;;5050974;28;20025;-47
2021/03/02 06:38:28;;;;;;;0.22;0.22;;;;;;;;;;5061534;28;20064;-45
2021/03/02 06:40:54;;;;;;;0.68;0.68;;;;;;;;;;5064345;28;20021;-50
2021/03/02 06:43:37;;;;;;;3.03;1.30;;;;;;;;;;5064082;28;20036;-46
2021/03/02 06:46:12;;;;;;;1.80;1.65;;;;;;;;;;5060858;28;20481;-52
2021/03/02 06:48:56;;;;;;;0.03;0.03;;;;;;;;;;5063486;28;20163;-51
2021/03/02 06:51:29;;;;;;;1.25;1.25;;;;;;;;;;5076692;28;20098;-48
2021/03/02 06:54:05;;;;;;;0.40;0.40;;;;;;;;;;5065826;28;20029;-45
2021/03/02 06:56:31;;;;;;;0.90;0.85;;;;;;;;;;5063316;28;20047;-46
2021/03/02 06:59:17;;;;;;;2.53;2.42;;;;;;;;;;5068608;28;20104;-47
2021/03/02 07:01:45;;;;;;;1.80;1.65;;;;;;;;;;5044059;28;20077;-46
2021/03/02 07:04:17;;;;;;;0.10;0.10;;;;;;;;;;5049588;28;20030;-45
2021/03/02 07:06:44;;;;;;;3.22;2.78;;;;;;;;;;5054131;28;20115;-45
2021/03/02 07:09:11;;;;;;;0.00;0.00;;;;;;;;;;5050026;28;20139;-46
2021/03/02 07:11:38;;;;;;;2.03;0.73;;;;;;;;;;5048931;28;20040;-47
2021/03/02 07:14:05;;;;;;;0.00;0.00;;;;;;;;;;5049135;28;20025;-53
2021/03/02 07:16:33;;;;;;;1.45;0.90;;;;;;;;;;5048638;28;20529;-45
2021/03/02 07:19:02;;;;;;;0.00;0.00;;;;;;;;;;5049669;28;20029;-46
2021/03/02 07:21:29;;;;;;;0.40;0.40;;;;;;;;;;5052541;28;20175;-45
2021/03/02 07:23:55;;;;;;;0.00;0.00;;;;;;;;;;5048673;28;20044;-50
2021/03/02 07:26:22;;;;;;;0.65;0.65;;;;;;;;;;5048754;28;20406;-46
2021/03/02 07:28:49;;;;;;;0.10;0.10;;;;;;;;;;5049098;28;20041;-45
2021/03/02 07:31:15;;;;;;;11.75;5.47;;;;;;;;;;5047387;28;20521;-45
2021/03/02 07:33:42;;;;;;;0.00;0.00;;;;;;;;;;5051248;28;20102;-45
2021/03/02 07:36:08;;;;;;;0.10;0.10;;;;;;;;;;5050375;28;20418;-47
2021/03/02 07:38:34;;;;;;;0.00;0.00;;;;;;;;;;5048394;28;20025;-45
2021/03/02 07:41:00;;;;;;;6.85;6.45;;;;;;;;;;5048781;28;20135;-48
2021/03/02 07:43:26;;;;;;;0.00;0.00;;;;;;;;;;5049170;28;20483;-45
2021/03/02 07:45:53;;;;;;;0.00;0.00;;;;;;;;;;5049029;28;20079;-45
2021/03/02 07:48:29;;;;;;;0.95;0.95;;;;;;;;;;5050646;28;20060;-45
2021/03/02 07:51:15;;;;;;;0.22;0.22;;;;;;;;;;5048826;28;20189;-47
2021/03/02 07:53:41;;;;;;;0.65;0.65;;;;;;;;;;5047552;28;20553;-46
2021/03/02 07:56:19;;;;;;;0.30;0.30;;;;;;;;;;5048548;28;20043;-45
2021/03/02 07:58:45;;;;;;;3.03;1.85;;;;;;;;;;5054391;28;20817;-46
2021/03/02 08:01:22;;;;;;;3.55;3.30;;;;;;;;;;5057112;28;20029;-46
2021/03/02 08:03:48;;;;;;;2.47;2.28;;;;;;;;;;5056082;28;20103;-46
2021/03/02 08:06:20;;;;;;;2.15;2.05;;;;;;;;;;5057743;28;20032;-45
2021/03/02 08:08:46;;;;;;;1.25;1.02;;;;;;;;;;5051329;28;20043;-46
2021/03/02 08:11:32;;;;;;;1.00;1.00;;;;;;;;;;5057963;28;20407;-48
2021/03/02 08:14:00;;;;;;;7.88;4.03;;;;;;;;;;5057829;28;20028;-46
2021/03/02 08:17:01;;;;;;;0.05;0.05;;;;;;;;;;5053455;28;20024;-46
2021/03/02 08:19:30;;;;;;;0.75;0.75;;;;;;;;;;5013714;28;20261;-45
2021/03/02 08:21:56;;;;;;;0.10;0.10;;;;;;;;;;5016960;28;20042;-46
2021/03/02 08:24:41;;;;;;;0.65;0.65;;;;;;;;;;5023164;28;20806;-50
2021/03/02 08:27:07;;;;;;;2.72;0.60;;;;;;;;;;5011443;28;20044;-52
2021/03/02 08:29:33;;;;;;;0.10;0.10;;;;;;;;;;5009488;28;20076;-47
2021/03/02 08:31:59;;;;;;;3.60;3.40;;;;;;;;;;5016995;28;20026;-47
2021/03/02 08:34:25;;;;;;;4.57;2.38;;;;;;;;;;5015066;28;20046;-46
2021/03/02 08:36:52;;;;;;;2.53;2.28;;;;;;;;;;5018140;28;20459;-49
2021/03/02 08:39:19;;;;;;;0.00;0.00;;;;;;;;;;5018359;28;20034;-50
2021/03/02 08:41:47;;;;;;;0.20;0.20;;;;;;;;;;5016618;28;20021;-46
2021/03/02 08:44:21;;;;;;;2.53;1.08;;;;;;;;;;5016249;28;20040;-48
2021/03/02 08:46:56;;;;;;;5.25;2.90;;;;;;;;;;5016597;28;20041;-45
2021/03/02 08:49:23;;;;;;;6.85;3.10;;;;;;;;;;5014746;28;20511;-50
2021/03/02 08:51:49;;;;;;;0.35;0.35;;;;;;;;;;5018042;28;20085;-49
2021/03/02 08:54:15;;;;;;;0.00;0.00;;;;;;;;;;5051553;28;20040;-49
2021/03/02 08:56:42;;;;;;;0.00;0.00;;;;;;;;;;5058113;28;20055;-46
2021/03/02 08:59:09;;;;;;;5.78;1.77;;;;;;;;;;5050065;28;20048;-45
2021/03/02 09:01:36;;;;;;;0.10;0.10;;;;;;;;;;5058816;28;20028;-46
2021/03/02 09:04:13;;;;;;;0.63;0.55;;;;;;;;;;5054827;28;20087;-45
2021/03/02 09:06:46;;;;;;;9.23;4.18;;;;;;;;;;5057126;28;20032;-47
2021/03/02 09:09:13;;;;;;;0.00;0.00;;;;;;;;;;5059738;28;20090;-45
2021/03/02 09:12:01;;;;;;;15.23;6.00;;;;;;;;;;5053303;28;20025;-45
2021/03/02 09:14:37;;;;;;;2.92;2.53;;;;;;;;;;5056662;28;20036;-49
2021/03/02 09:17:12;;;;;;;3.00;1.73;;;;;;;;;;5048659;28;20719;-49
2021/03/02 09:19:39;;;;;;;0.32;0.32;;;;;;;;;;5046239;28;20474;-46
2021/03/02 09:22:06;;;;;;;6.40;1.02;;;;;;;;;;5049676;28;20017;-49
2021/03/02 09:24:37;;;;;;;2.17;1.50;;;;;;;;;;5050491;28;20078;-50
2021/03/02 09:27:23;;;;;;;3.70;3.40;;;;;;;;;;5046778;28;20123;-49
2021/03/02 09:29:50;;;;;;;2.30;1.55;;;;;;;;;;5047502;28;20111;-48
2021/03/02 09:32:17;;;;;;;2.70;2.50;;;;;;;;;;5047319;28;20029;-46
2021/03/02 09:34:44;;;;;;;0.10;0.10;;;;;;;;;;5046916;28;20029;-49
2021/03/02 09:37:12;;;;;;;14.02;6.10;;;;;;;;;;5046864;28;20017;-46
2021/03/02 09:39:42;;;;;;;6.22;4.57;;;;;;;;;;5049757;28;20459;-46
2021/03/02 09:42:18;;;;;;;0.43;0.43;;;;;;;;;;5055122;28;20453;-50
2021/03/02 09:44:46;;;;;;;10.15;6.05;;;;;;;;;;5045513;28;20122;-47
2021/03/02 09:47:15;;;;;;;0.00;0.00;;;;;;;;;;5045735;28;20074;-48
2021/03/02 09:49:54;;;;;;;1.02;1.00;;;;;;;;;;5047617;28;20068;-51
2021/03/02 09:52:20;;;;;;;0.10;0.10;;;;;;;;;;5047282;28;20029;-50
2021/03/02 09:55:05;;;;;;;4.55;3.38;;;;;;;;;;5049181;28;20032;-50
2021/03/02 09:57:31;;;;;;;6.93;3.50;;;;;;;;;;5043085;28;20116;-48
2021/03/02 09:59:57;;;;;;;6.45;6.05;;;;;;;;;;5036720;28;20049;-47
2021/03/02 10:02:24;;;;;;;4.32;4.13;;;;;;;;;;5048058;28;20036;-51
2021/03/02 10:04:50;;;;;;;3.38;3.17;;;;;;;;;;5046088;28;20021;-50
2021/03/02 10:07:16;;;;;;;13.27;6.75;;;;;;;;;;5043816;28;20036;-48
2021/03/02 10:09:48;;;;;;;4.35;3.25;;;;;;;;;;5042892;28;20836;-50
2021/03/02 10:12:15;;;;;;;1.17;1.17;;;;;;;;;;5044037;28;20028;-47
2021/03/02 10:14:42;;;;;;;1.77;0.63;;;;;;;;;;5045141;28;20032;-47
2021/03/02 10:17:09;;;;;;;7.85;5.57;;;;;;;;;;5045749;28;20453;-51
2021/03/02 10:19:36;;;;;;;0.70;0.70;;;;;;;;;;5045957;28;20029;-50
2021/03/02 10:22:03;;;;;;;3.70;2.15;;;;;;;;;;5044354;28;20497;-48
2021/03/02 10:24:36;;;;;;;2.72;2.05;;;;;;;;;;5041826;28;20025;-49
2021/03/02 10:27:22;;;;;;;5.72;5.22;;;;;;;;;;5047813;28;20082;-48
2021/03/02 10:29:49;;;;;;;21.38;12.35;;;;;;;;;;5040709;28;20037;-50
2021/03/02 10:32:15;;;;;;;7.78;5.72;;;;;;;;;;5041578;28;20065;-46
2021/03/02 10:34:43;;;;;;;0.40;0.40;;;;;;;;;;5033497;28;20108;-48
2021/03/02 10:37:10;;;;;;;8.40;3.67;;;;;;;;;;5046276;28;20112;-49
2021/03/02 10:39:37;;;;;;;7.13;4.43;;;;;;;;;;5048408;28;20037;-49
2021/03/02 10:42:04;;;;;;;11.02;7.38;;;;;;;;;;5042774;28;20025;-47
2021/03/02 10:44:30;;;;;;;51.50;6.50;;;;;;;;;;5048658;28;20443;-51
2021/03/02 10:46:56;;;;;;;15.75;9.48;;;;;;;;;;5048150;28;20025;-49
2021/03/02 10:49:22;;;;;;;0.25;0.25;;;;;;;;;;5047353;28;20033;-52
2021/03/02 10:51:49;;;;;;;17.45;8.55;;;;;;;;;;5040819;28;20025;-51
2021/03/02 10:54:15;;;;;;;4.38;3.40;;;;;;;;;;5038908;28;20111;-51
2021/03/02 10:56:41;;;;;;;0.17;0.17;;;;;;;;;;5042091;28;20067;-48
2021/03/02 10:59:08;;;;;;;0.10;0.10;;;;;;;;;;5037847;28;20049;-50
2021/03/02 11:01:34;;;;;;;2.40;2.22;;;;;;;;;;5035352;28;20171;-55
2021/03/02 11:04:00;;;;;;;6.70;2.70;;;;;;;;;;5032167;28;20263;-48
2021/03/02 11:06:28;;;;;;;0.30;0.30;;;;;;;;;;5048046;28;20037;-49
2021/03/02 11:08:55;;;;;;;1.67;1.58;;;;;;;;;;5048744;28;20029;-49
2021/03/02 11:11:21;;;;;;;3.78;3.10;;;;;;;;;;5049060;28;20114;-46
2021/03/02 11:13:51;;;;;;;13.88;7.63;;;;;;;;;;5050361;28;20060;-47
2021/03/02 11:16:17;;;;;;;10.20;5.68;;;;;;;;;;5048985;28;20037;-50
2021/03/02 11:18:43;;;;;;;1.85;1.75;;;;;;;;;;5049358;28;20025;-49
2021/03/02 11:21:11;;;;;;;1.75;0.57;;;;;;;;;;5051195;28;20039;-47
2021/03/02 11:23:37;;;;;;;6.30;5.78;;;;;;;;;;5050404;28;20029;-46
2021/03/02 11:26:03;;;;;;;0.10;0.10;;;;;;;;;;5050134;28;20021;-47
2021/03/02 11:28:30;;;;;;;4.15;1.63;;;;;;;;;;5049734;28;20057;-46
2021/03/02 11:30:56;;;;;;;13.95;2.75;;;;;;;;;;5050661;28;20037;-46
2021/03/02 11:33:22;;;;;;;3.13;2.20;;;;;;;;;;5051904;28;20112;-48
2021/03/02 11:35:48;;;;;;;12.73;5.47;;;;;;;;;;5049631;28;20033;-49
2021/03/02 11:38:14;;;;;;;11.45;4.75;;;;;;;;;;5049814;28;20421;-50
2021/03/02 11:40:41;;;;;;;1.23;1.10;;;;;;;;;;5048283;28;20096;-50
2021/03/02 11:43:07;;;;;;;0.10;0.10;;;;;;;;;;5049844;28;20079;-50
2021/03/02 11:45:37;;;;;;;6.80;2.15;;;;;;;;;;5052327;28;20075;-51
2021/03/02 11:48:03;;;;;;;9.85;4.15;;;;;;;;;;5050639;28;20731;-48
2021/03/02 11:50:29;;;;;;;0.30;0.30;;;;;;;;;;5048612;28;20060;-50
2021/03/02 11:52:55;;;;;;;1.45;1.30;;;;;;;;;;5050165;28;20025;-49
2021/03/02 11:55:22;;;;;;;1.60;1.50;;;;;;;;;;5050694;28;20032;-46
2021/03/02 11:57:48;;;;;;;3.78;0.85;;;;;;;;;;5052268;28;20064;-49
2021/03/02 12:00:19;;;;;;;6.25;2.55;;;;;;;;;;5050110;28;20498;-49
2021/03/02 12:02:46;;;;;;;7.20;5.75;;;;;;;;;;5049504;28;20056;-46
2021/03/02 12:05:13;;;;;;;1.08;0.85;;;;;;;;;;5049412;28;20029;-51
2021/03/02 12:07:39;;;;;;;5.15;4.65;;;;;;;;;;5049185;28;20399;-48
2021/03/02 12:10:06;;;;;;;8.77;3.17;;;;;;;;;;5051067;28;20036;-49
2021/03/02 12:12:33;;;;;;;0.10;0.10;;;;;;;;;;5052065;28;20025;-48
2021/03/02 12:14:59;;;;;;;15.80;8.15;;;;;;;;;;5048822;28;20051;-47
2021/03/02 12:17:25;;;;;;;6.40;3.65;;;;;;;;;;5048346;28;20032;-54
2021/03/02 12:19:51;;;;;;;5.95;4.82;;;;;;;;;;5050835;28;20100;-51
2021/03/02 12:22:17;;;;;;;2.42;1.85;;;;;;;;;;5049467;28;20506;-48
2021/03/02 12:24:43;;;;;;;5.13;3.13;;;;;;;;;;5050880;28;20509;-47
2021/03/02 12:27:09;;;;;;;17.90;7.07;;;;;;;;;;5051345;28;20108;-51
2021/03/02 12:29:36;;;;;;;9.25;4.72;;;;;;;;;;5050214;28;20048;-49
2021/03/02 12:32:02;;;;;;;5.45;3.58;;;;;;;;;;5050408;28;20509;-48
2021/03/02 12:34:28;;;;;;;12.32;4.85;;;;;;;;;;5050374;28;20036;-48
2021/03/02 12:36:55;;;;;;;5.60;1.73;;;;;;;;;;5049619;28;20041;-53
2021/03/02 12:39:22;;;;;;;13.43;4.93;;;;;;;;;;5051389;28;20483;-47
2021/03/02 12:41:48;;;;;;;9.25;5.63;;;;;;;;;;5049920;28;20052;-50
2021/03/02 12:44:14;;;;;;;2.20;2.10;;;;;;;;;;5048992;28;20500;-50
2021/03/02 12:46:40;;;;;;;3.13;2.53;;;;;;;;;;5049917;28;20009;-48
2021/03/02 12:49:06;;;;;;;0.85;0.85;;;;;;;;;;5050140;28;20037;-48
2021/03/02 12:51:32;;;;;;;3.83;1.42;;;;;;;;;;5050856;28;20017;-46
2021/03/02 12:53:59;;;;;;;11.18;4.78;;;;;;;;;;5050194;28;20029;-45
2021/03/02 12:56:26;;;;;;;3.03;2.72;;;;;;;;;;5049926;28;20032;-47
2021/03/02 12:58:55;;;;;;;3.67;2.88;;;;;;;;;;5046361;28;20029;-52
2021/03/02 13:01:22;;;;;;;14.23;9.50;;;;;;;;;;5049758;28;20033;-49
2021/03/02 13:03:49;;;;;;;16.13;8.75;;;;;;;;;;5050192;28;20029;-47
2021/03/02 13:06:15;;;;;;;9.25;4.88;;;;;;;;;;5049551;28;20028;-47
2021/03/02 13:08:45;;;;;;;6.00;3.28;;;;;;;;;;5047939;28;20414;-50
2021/03/02 13:11:12;;;;;;;9.57;5.57;;;;;;;;;;5049185;28;20017;-48
2021/03/02 13:13:39;;;;;;;4.20;1.38;;;;;;;;;;5048405;28;20021;-48
2021/03/02 13:16:05;;;;;;;11.85;6.53;;;;;;;;;;5046335;28;20107;-49
2021/03/02 13:18:32;;;;;;;9.02;4.07;;;;;;;;;;5051121;28;20088;-46
2021/03/02 13:20:58;;;;;;;3.92;3.33;;;;;;;;;;5047903;28;20078;-46
2021/03/02 13:23:25;;;;;;;5.93;4.65;;;;;;;;;;5047825;28;20119;-49
2021/03/02 13:25:52;;;;;;;6.30;4.75;;;;;;;;;;5047631;28;20029;-49
2021/03/02 13:28:20;;;;;;;8.10;4.20;;;;;;;;;;5047337;28;20100;-50
2021/03/02 13:30:49;;;;;;;4.80;3.00;;;;;;;;;;5050149;28;20041;-47
2021/03/02 13:33:17;;;;;;;6.90;3.80;;;;;;;;;;5049056;28;20039;-51
2021/03/02 13:35:46;;;;;;;5.22;3.03;;;;;;;;;;5047698;28;20029;-47
2021/03/02 13:38:13;;;;;;;11.40;3.92;;;;;;;;;;5047128;28;20037;-49
2021/03/02 13:40:40;;;;;;;1.15;1.15;;;;;;;;;;5046851;28;20025;-48
2021/03/02 13:43:07;;;;;;;4.57;2.58;;;;;;;;;;5047973;28;20394;-49
2021/03/02 13:45:33;;;;;;;5.38;1.65;;;;;;;;;;5050698;28;20398;-53
2021/03/02 13:47:59;;;;;;;4.78;4.32;;;;;;;;;;5047237;28;20478;-50
2021/03/02 13:50:26;;;;;;;1.02;0.75;;;;;;;;;;5046055;28;20044;-50
2021/03/02 13:52:52;;;;;;;4.68;3.65;;;;;;;;;;5045321;28;20466;-49
2021/03/02 13:55:20;;;;;;;6.32;4.30;;;;;;;;;;5048534;28;20025;-49
2021/03/02 13:57:46;;;;;;;0.85;0.85;;;;;;;;;;5049491;28;20029;-51
2021/03/02 14:00:17;;;;;;;2.05;1.48;;;;;;;;;;5048402;28;20045;-52
2021/03/02 14:02:44;;;;;;;6.68;4.70;;;;;;;;;;5047603;28;20557;-49
2021/03/02 14:05:11;;;;;;;7.75;5.15;;;;;;;;;;5047450;28;20503;-47
2021/03/02 14:07:38;;;;;;;9.40;6.45;;;;;;;;;;5046128;28;20036;-50
2021/03/02 14:10:06;;;;;;;12.85;8.20;;;;;;;;;;5046954;28;20044;-45
2021/03/02 14:12:32;;;;;;;12.90;4.75;;;;;;;;;;5049228;28;20029;-47
2021/03/02 14:14:58;;;;;;;9.10;4.68;;;;;;;;;;5051081;28;20521;-48
2021/03/02 14:17:25;;;;;;;27.60;7.13;;;;;;;;;;5051382;28;20048;-49
2021/03/02 14:19:51;;;;;;;5.72;3.65;;;;;;;;;;5051065;28;20116;-51
2021/03/02 14:22:18;;;;;;;1.02;1.00;;;;;;;;;;5053066;28;20020;-48
2021/03/02 14:24:46;;;;;;;6.65;5.70;;;;;;;;;;5052165;28;20043;-51
2021/03/02 14:27:16;;;;;;;9.98;5.70;;;;;;;;;;5051911;28;20159;-47
2021/03/02 14:29:42;;;;;;;0.17;0.17;;;;;;;;;;5051071;28;20048;-52
2021/03/02 14:32:08;;;;;;;2.63;2.42;;;;;;;;;;5049820;28;20548;-45
2021/03/02 14:34:35;;;;;;;3.28;2.22;;;;;;;;;;5049763;28;20033;-46
2021/03/02 14:37:01;;;;;;;12.60;5.75;;;;;;;;;;5051129;28;20021;-48
2021/03/02 14:39:27;;;;;;;9.95;4.20;;;;;;;;;;5052940;28;20029;-46
2021/03/02 14:41:54;;;;;;;1.02;0.75;;;;;;;;;;5052142;28;20479;-49
2021/03/02 14:44:34;;;;;;;6.57;5.28;;;;;;;;;;5052214;28;20039;-49
2021/03/02 14:47:07;;;;;;;19.30;5.80;;;;;;;;;;5049964;28;20461;-48
2021/03/02 14:49:52;;;;;;;12.23;3.75;;;;;;;;;;5052011;28;20036;-46
2021/03/02 14:52:19;;;;;;;10.23;7.20;;;;;;;;;;5051706;28;20029;-50
2021/03/02 14:54:46;;;;;;;14.68;5.28;;;;;;;;;;5048482;28;20044;-49
2021/03/02 14:57:17;;;;;;;9.27;5.53;;;;;;;;;;5045753;28;20035;-49
2021/03/02 14:59:47;;;;;;;12.75;2.47;;;;;;;;;;5050157;28;20083;-49
2021/03/02 15:02:13;;;;;;;0.22;0.20;;;;;;;;;;5049465;28;20416;-47
2021/03/02 15:04:39;;;;;;;4.30;2.35;;;;;;;;;;5051076;28;20021;-49
2021/03/02 15:07:06;;;;;;;9.73;4.78;;;;;;;;;;5050225;28;20033;-49
2021/03/02 15:09:32;;;;;;;1.40;1.25;;;;;;;;;;5052321;28;20029;-47
2021/03/02 15:11:58;;;;;;;9.85;3.63;;;;;;;;;;5050399;28;20054;-51
2021/03/02 15:14:31;;;;;;;12.40;5.47;;;;;;;;;;5050657;28;20025;-47
2021/03/02 15:17:00;;;;;;;2.03;1.42;;;;;;;;;;5050715;28;20017;-54
2021/03/02 15:19:30;;;;;;;4.15;2.70;;;;;;;;;;5049822;28;20029;-48
2021/03/02 15:21:57;;;;;;;10.82;7.28;;;;;;;;;;5050816;28;20111;-47
2021/03/02 15:24:24;;;;;;;5.13;2.83;;;;;;;;;;5052602;28;20029;-48
2021/03/02 15:26:50;;;;;;;14.10;6.47;;;;;;;;;;5050152;28;20490;-49
2021/03/02 15:29:17;;;;;;;3.45;3.22;;;;;;;;;;5048621;28;20406;-48
2021/03/02 15:31:44;;;;;;;4.40;3.05;;;;;;;;;;5039249;28;20471;-49
2021/03/02 15:34:11;;;;;;;0.10;0.10;;;;;;;;;;5050517;28;20037;-49
2021/03/02 15:36:41;;;;;;;0.30;0.30;;;;;;;;;;5051967;28;20213;-57
2021/03/02 15:39:08;;;;;;;0.75;0.63;;;;;;;;;;5050580;28;20508;-46
2021/03/02 15:41:34;;;;;;;0.10;0.10;;;;;;;;;;5051425;28;20117;-52
2021/03/02 15:44:01;;;;;;;3.30;2.72;;;;;;;;;;5046500;28;20064;-50
2021/03/02 15:46:27;;;;;;;0.88;0.88;;;;;;;;;;5049525;28;20017;-49
2021/03/02 15:48:54;;;;;;;0.65;0.52;;;;;;;;;;5049361;28;20099;-48
2021/03/02 15:51:20;;;;;;;0.00;0.00;;;;;;;;;;5048435;28;20107;-51
2021/03/02 15:53:46;;;;;;;5.57;3.95;;;;;;;;;;5040497;28;20039;-50
2021/03/02 15:56:13;;;;;;;1.60;1.50;;;;;;;;;;5049115;28;20108;-47
2021/03/02 15:58:40;;;;;;;2.35;2.22;;;;;;;;;;5048711;28;20029;-49
2021/03/02 16:01:06;;;;;;;0.40;0.40;;;;;;;;;;5046061;28;20021;-49
2021/03/02 16:03:34;;;;;;;1.40;1.30;;;;;;;;;;5050428;28;20033;-49
2021/03/02 16:06:11;;;;;;;0.35;0.35;;;;;;;;;;5048846;28;20025;-47
2021/03/02 16:08:41;;;;;;;0.57;0.57;;;;;;;;;;5048239;28;20031;-49
2021/03/02 16:11:10;;;;;;;0.00;0.00;;;;;;;;;;5047779;28;20104;-49
2021/03/02 16:13:38;;;;;;;0.52;0.52;;;;;;;;;;5048320;28;20560;-56
2021/03/02 16:16:09;;;;;;;1.23;1.23;;;;;;;;;;5045580;28;20033;-58
2021/03/02 16:18:36;;;;;;;3.15;2.85;;;;;;;;;;5047245;28;20040;-64
2021/03/02 16:21:03;;;;;;;0.17;0.17;;;;;;;;;;5050508;28;20025;-49
2021/03/02 16:23:30;;;;;;;0.20;0.20;;;;;;;;;;5047984;28;20037;-47
2021/03/02 16:25:57;;;;;;;5.78;2.38;;;;;;;;;;5042560;28;20526;-48
2021/03/02 16:28:23;;;;;;;6.47;6.05;;;;;;;;;;5038170;28;20044;-49
2021/03/02 16:30:50;;;;;;;0.73;0.73;;;;;;;;;;5038911;28;20053;-50
2021/03/02 16:33:16;;;;;;;1.55;1.00;;;;;;;;;;5040793;28;20034;-52
2021/03/02 16:35:42;;;;;;;0.63;0.63;;;;;;;;;;5036975;28;20021;-51
2021/03/02 16:38:12;;;;;;;0.10;0.10;;;;;;;;;;5032959;28;20027;-50
2021/03/02 16:40:42;;;;;;;0.88;0.88;;;;;;;;;;5033370;28;20029;-50
2021/03/02 16:43:09;;;;;;;0.00;0.00;;;;;;;;;;5044356;28;20035;-46
2021/03/02 16:45:35;;;;;;;3.30;1.75;;;;;;;;;;5032467;28;20040;-50
2021/03/02 16:48:01;;;;;;;0.00;0.00;;;;;;;;;;5034056;28;20033;-48
2021/03/02 16:50:31;;;;;;;3.10;0.90;;;;;;;;;;5038689;28;20089;-46
2021/03/02 16:52:59;;;;;;;1.20;1.20;;;;;;;;;;5046339;28;20028;-48
2021/03/02 16:55:25;;;;;;;0.52;0.52;;;;;;;;;;5041624;28;20222;-48
2021/03/02 16:58:03;;;;;;;6.00;5.55;;;;;;;;;;5035307;28;20104;-49
2021/03/02 17:00:35;;;;;;;0.10;0.10;;;;;;;;;;5036242;28;20113;-48
2021/03/02 17:03:01;;;;;;;1.05;1.05;;;;;;;;;;5031444;28;20057;-51
2021/03/02 17:05:28;;;;;;;2.70;2.45;;;;;;;;;;5032389;28;20033;-45
2021/03/02 17:07:54;;;;;;;3.95;3.65;;;;;;;;;;5031962;28;20021;-48
2021/03/02 17:10:21;;;;;;;0.08;0.08;;;;;;;;;;5033772;28;20033;-46
2021/03/02 17:12:48;;;;;;;1.02;1.02;;;;;;;;;;5031191;28;20112;-45
2021/03/02 17:15:14;;;;;;;0.00;0.00;;;;;;;;;;5035094;28;20035;-46
2021/03/02 17:17:40;;;;;;;0.52;0.40;;;;;;;;;;5029863;28;20034;-48
2021/03/02 17:20:07;;;;;;;0.10;0.10;;;;;;;;;;5033051;28;20029;-45
2021/03/02 17:22:33;;;;;;;0.10;0.10;;;;;;;;;;5030539;28;20047;-48
2021/03/02 17:24:59;;;;;;;0.10;0.10;;;;;;;;;;5029031;28;20039;-49
2021/03/02 17:27:25;;;;;;;0.10;0.10;;;;;;;;;;5032546;28;20035;-48
2021/03/02 17:29:52;;;;;;;0.00;0.00;;;;;;;;;;5042338;28;20036;-45
2021/03/02 17:32:18;;;;;;;0.10;0.10;;;;;;;;;;5039941;28;20047;-47
2021/03/02 17:34:44;;;;;;;0.10;0.10;;;;;;;;;;5048518;28;20036;-47
2021/03/02 17:37:10;;;;;;;0.70;0.70;;;;;;;;;;5046995;28;20454;-47
2021/03/02 17:39:36;;;;;;;2.13;1.83;;;;;;;;;;5044120;28;20032;-46
2021/03/02 17:42:02;;;;;;;0.10;0.10;;;;;;;;;;5048250;28;20415;-46
2021/03/02 17:44:28;;;;;;;1.50;1.45;;;;;;;;;;5047297;28;20025;-50
2021/03/02 17:46:55;;;;;;;0.10;0.10;;;;;;;;;;5046705;28;20029;-45
2021/03/02 17:49:21;;;;;;;0.10;0.10;;;;;;;;;;5045948;28;20113;-48
2021/03/02 17:51:47;;;;;;;0.20;0.20;;;;;;;;;;5049704;28;20024;-45
2021/03/02 17:54:13;;;;;;;0.70;0.70;;;;;;;;;;5048692;28;20083;-46
2021/03/02 17:56:39;;;;;;;0.20;0.20;;;;;;;;;;5047552;28;20024;-48
2021/03/02 17:59:05;;;;;;;0.10;0.10;;;;;;;;;;5036204;28;20064;-49
2021/03/02 18:01:31;;;;;;;0.15;0.15;;;;;;;;;;5047885;28;20056;-45
2021/03/02 18:03:57;;;;;;;0.57;0.57;;;;;;;;;;5048622;28;20081;-48
2021/03/02 18:06:24;;;;;;;0.10;0.10;;;;;;;;;;5049209;28;20037;-48
2021/03/02 18:08:50;;;;;;;0.00;0.00;;;;;;;;;;5048391;28;20032;-46
2021/03/02 18:11:16;;;;;;;0.10;0.10;;;;;;;;;;5048494;28;20029;-46
2021/03/02 18:13:42;;;;;;;0.10;0.10;;;;;;;;;;5049059;28;20380;-51
2021/03/02 18:16:08;;;;;;;1.80;1.70;;;;;;;;;;5045817;28;20039;-45
2021/03/02 18:18:34;;;;;;;0.10;0.10;;;;;;;;;;5048335;28;20490;-51
2021/03/02 18:21:00;;;;;;;0.80;0.80;;;;;;;;;;5047212;28;20067;-46
2021/03/02 18:23:26;;;;;;;0.00;0.00;;;;;;;;;;5047000;28;20021;-47
2021/03/02 18:25:52;;;;;;;0.00;0.00;;;;;;;;;;5047343;28;20453;-48
2021/03/02 18:28:19;;;;;;;0.00;0.00;;;;;;;;;;5047412;28;20028;-47
2021/03/02 18:30:45;;;;;;;0.10;0.10;;;;;;;;;;5049043;28;20079;-52
2021/03/02 18:33:11;;;;;;;0.10;0.10;;;;;;;;;;5048302;28;20065;-49
2021/03/02 18:35:37;;;;;;;0.10;0.10;;;;;;;;;;5047069;28;20446;-46
2021/03/02 18:38:03;;;;;;;0.85;0.82;;;;;;;;;;5047103;28;20620;-47
2021/03/02 18:40:30;;;;;;;0.47;0.43;;;;;;;;;;5047283;28;20063;-46
2021/03/02 18:42:56;;;;;;;0.13;0.13;;;;;;;;;;5048820;28;20050;-48
2021/03/02 18:45:22;;;;;;;2.05;1.95;;;;;;;;;;5048978;28;20060;-47
2021/03/02 18:47:48;;;;;;;0.20;0.20;;;;;;;;;;5047189;28;20060;-48
2021/03/02 18:50:15;;;;;;;0.10;0.10;;;;;;;;;;5046922;28;20075;-48
2021/03/02 18:52:42;;;;;;;3.67;3.33;;;;;;;;;;5047074;28;20072;-48
2021/03/02 18:55:08;;;;;;;0.10;0.10;;;;;;;;;;5047190;28;20025;-46
2021/03/02 18:57:34;;;;;;;0.10;0.10;;;;;;;;;;5053329;28;20501;-50
2021/03/02 19:00:01;;;;;;;0.40;0.40;;;;;;;;;;5050100;28;20465;-49
2021/03/02 19:02:27;;;;;;;0.10;0.10;;;;;;;;;;5048887;28;20450;-48
2021/03/02 19:04:53;;;;;;;144.77;14.20;;;;;;;;;;5060765;28;20027;-49
2021/03/02 19:07:19;;;;;;;0.08;0.08;;;;;;;;;;5056545;28;20441;-51
2021/03/02 19:09:45;;;;;;;0.10;0.10;;;;;;;;;;5060328;28;20447;-47
2021/03/02 19:12:11;;;;;;;1.05;1.05;;;;;;;;;;5061591;28;20021;-48
2021/03/02 19:14:37;;;;;;;2.15;2.05;;;;;;;;;;5057270;28;20040;-48
2021/03/02 19:17:03;;;;;;;0.10;0.10;;;;;;;;;;5051659;28;20029;-58
2021/03/02 19:19:29;;;;;;;0.10;0.10;;;;;;;;;;5042988;28;20029;-48
2021/03/02 19:21:56;;;;;;;0.10;0.10;;;;;;;;;;5034320;28;20068;-51
2021/03/02 19:24:22;;;;;;;0.40;0.40;;;;;;;;;;5033700;28;20059;-48
2021/03/02 19:26:48;;;;;;;0.10;0.10;;;;;;;;;;5036251;28;20029;-48
2021/03/02 19:29:14;;;;;;;0.17;0.17;;;;;;;;;;5036626;28;20056;-51
2021/03/02 19:31:40;;;;;;;0.10;0.10;;;;;;;;;;5035675;28;20029;-52
2021/03/02 19:34:06;;;;;;;0.10;0.10;;;;;;;;;;5035439;28;20032;-51
2021/03/02 19:36:32;;;;;;;0.10;0.10;;;;;;;;;;5043195;28;20036;-52
2021/03/02 19:38:59;;;;;;;0.00;0.00;;;;;;;;;;5048592;28;20051;-49
2021/03/02 19:41:25;;;;;;;0.00;0.00;;;;;;;;;;5046759;28;20025;-47
2021/03/02 19:43:51;;;;;;;0.10;0.10;;;;;;;;;;5049320;28;20025;-50
2021/03/02 19:46:17;;;;;;;0.17;0.17;;;;;;;;;;5037099;28;20041;-49
2021/03/02 19:48:43;;;;;;;0.10;0.10;;;;;;;;;;5029971;28;20080;-48
2021/03/02 19:51:10;;;;;;;0.10;0.10;;;;;;;;;;5036530;28;20021;-53
2021/03/02 19:53:36;;;;;;;1.65;0.50;;;;;;;;;;5045209;28;20025;-52
2021/03/02 19:56:02;;;;;;;0.10;0.10;;;;;;;;;;5045856;28;20439;-47
2021/03/02 19:58:29;;;;;;;0.95;0.95;;;;;;;;;;5045173;28;20457;-48
2021/03/02 20:00:55;;;;;;;0.40;0.40;;;;;;;;;;5047238;28;20040;-49
2021/03/02 20:03:21;;;;;;;0.00;0.00;;;;;;;;;;5049319;28;20519;-52
2021/03/02 20:05:47;;;;;;;0.32;0.32;;;;;;;;;;5047337;28;20124;-50
2021/03/02 20:08:14;;;;;;;0.10;0.10;;;;;;;;;;5040399;28;20033;-51
2021/03/02 20:10:40;;;;;;;0.10;0.10;;;;;;;;;;5036716;28;20036;-49
2021/03/02 20:13:06;;;;;;;0.08;0.08;;;;;;;;;;5033990;28;20025;-53
2021/03/02 20:15:34;;;;;;;0.15;0.15;;;;;;;;;;5042782;28;20029;-52
2021/03/02 20:18:00;;;;;;;0.00;0.00;;;;;;;;;;5045891;28;20107;-53
2021/03/02 20:20:26;;;;;;;0.10;0.10;;;;;;;;;;5047163;28;20391;-49
2021/03/02 20:22:52;;;;;;;16.08;0.85;;;;;;;;;;5045437;28;20031;-52
2021/03/02 20:25:19;;;;;;;0.10;0.10;;;;;;;;;;5045845;28;20033;-47
2021/03/02 20:27:45;;;;;;;0.40;0.40;;;;;;;;;;5034846;28;20450;-54
2021/03/02 20:30:11;;;;;;;0.10;0.10;;;;;;;;;;5035850;28;20099;-54
2021/03/02 20:32:37;;;;;;;0.10;0.10;;;;;;;;;;5036211;28;20091;-49
2021/03/02 20:35:04;;;;;;;0.10;0.10;;;;;;;;;;5042991;28;20029;-48
2021/03/02 20:37:30;;;;;;;0.00;0.00;;;;;;;;;;5038957;28;20052;-48
2021/03/02 20:39:56;;;;;;;0.30;0.30;;;;;;;;;;5043678;28;20034;-49
2021/03/02 20:42:22;;;;;;;0.10;0.10;;;;;;;;;;5048698;28;20036;-47
2021/03/02 20:44:48;;;;;;;3.60;2.17;;;;;;;;;;5046356;28;20033;-46